Cameron Park, New South Wales

12:35 PM AEST on September 03, 2015 (GMT +1000)
INEWSOUT101 | | Change Station
CLOSE
Current Station
Personal Weather Station
Location: Edgeworth, NEW SOUTH WALES
Elevation: 95 ft
Nearby Weather Stations

Elev 95 ft 32.92 °S, 151.62 °E | Updated 19 seconds ago

Overcast
Overcast
63.1 °F
Feels Like 63.1 °F
N
9.2
Wind Variable Wind from West
Gusts 9.2 mph

Today
High -- | Low -- °F
--% Chance of Precip.
Yesterday
High -- | Low -- °F
Precip. -- in
6:09 AM 5:37 PM
Waning Gibbous, 75% visible
Pressure 29.74 in
Visibility 6.2 miles
Clouds Few 4000 ft
Overcast 20000 ft
Dew Point 49 °F
Humidity 60%
Rainfall 0.00 in
Snow Depth Not available.
UV 2 out of 12
Pollen Not available.
Air Quality Not available.
Flu Activity Not available.
SPECI YWLM 030200Z 29015G25KT 9999 FEW040 OVC200 18/06 Q1007 FM0200 29015G30KT 9999 FEW040 FM0200 MOD TURB BLW 5000FT
Pressure 29.74 in
Visibility 6.2 miles
Clouds Few 4000 ft
Overcast 20000 ft
Dew Point 49 °F
Humidity 60%
Rainfall 0.00 in
Snow Depth Not available.
UV 2 out of 12
Pollen Not available.
Air Quality Not available.
Flu Activity Not available.
SPECI YWLM 030200Z 29015G25KT 9999 FEW040 OVC200 18/06 Q1007 FM0200 29015G30KT 9999 FEW040 FM0200 MOD TURB BLW 5000FT

10-Day Weather Forecast

×

Almanac

Astronomy

Sep. 03, 2015 Rise Set
Actual Time
Civil Twilight
Nautical Twilight
Astronomical Twilight
Moon
Length of Visible Light
Length of Day
Tomorrow will be .
, % of the Moon is Illuminated

Today's Extremes

Country Highs Country Lows

Community

WunderPhotos

Upload Photos

1,851,879 photos uploaded!

WunderBlogs® & News

Nearby

Air Quality

  Air Quality AQ Index Pollutant
Not available.

Snow Depth

Station Depth Elevation

Earthquake Activity

City Distance Mag. Time & Date
Minimum magnitude displayed is 2.5.

Coastal Water Temperatures

Place Temperature

Stations

Nearby Weather Stations

Station Location Temp. Windchill Dew Point Humidity Wind Precip. Elev Updated Type